Time;durP1;ratioP1;P1;durP2;ratioP2;P2;SDS_P1;SDS_P2;PMS_P1;PMS_P2;Temp;Humidity;BMP_temperature;BMP_pressure;BME280_temperature;BME280_humidity;BME280_pressure;Samples;Min_cycle;Max_cycle;Signal;HPM_P1;HPM_P2
2021/06/19 00:00:35;;;;;;;98.88;42.63;;;18.80;99.90;;;;;;5063748;28;20393;-83
2021/06/19 00:03:03;;;;;;;114.18;47.17;;;18.80;99.90;;;;;;5044411;28;20028;-83
2021/06/19 00:05:29;;;;;;;133.18;47.85;;;18.80;99.90;;;;;;5061181;28;20784;-81
2021/06/19 00:07:56;;;;;;;127.70;48.30;;;18.80;99.90;;;;;;5025542;28;20476;-82
2021/06/19 00:10:23;;;;;;;125.43;46.47;;;18.80;99.90;;;;;;5062345;28;20033;-83
2021/06/19 00:12:50;;;;;;;148.65;50.10;;;18.80;99.90;;;;;;5030837;28;20052;-82
2021/06/19 00:15:19;;;;;;;141.63;50.10;;;18.80;99.90;;;;;;5058282;28;20037;-81
2021/06/19 00:17:45;;;;;;;163.82;52.88;;;18.80;99.90;;;;;;5033724;28;20522;-80
2021/06/19 00:20:14;;;;;;;133.27;49.28;;;18.80;99.90;;;;;;5044336;28;20111;-83
2021/06/19 00:22:40;;;;;;;146.70;51.95;;;18.80;99.90;;;;;;5035256;28;20029;-81
2021/06/19 00:25:08;;;;;;;149.73;53.90;;;18.80;99.90;;;;;;5063970;28;20092;-83
2021/06/19 00:27:35;;;;;;;132.50;52.25;;;18.80;99.90;;;;;;5048442;28;20048;-82
2021/06/19 00:30:00;;;;;;;157.68;54.53;;;18.80;99.90;;;;;;5030659;28;20029;-83
2021/06/19 00:32:26;;;;;;;148.60;52.80;;;18.80;99.90;;;;;;5044446;28;20039;-81
2021/06/19 00:34:52;;;;;;;109.68;49.80;;;18.80;99.90;;;;;;5065900;28;20037;-83
2021/06/19 00:37:18;;;;;;;141.45;54.88;;;18.80;99.90;;;;;;5045960;28;20033;-83
2021/06/19 00:39:44;;;;;;;117.05;53.25;;;18.70;99.90;;;;;;5045177;28;20029;-83
2021/06/19 00:42:10;;;;;;;106.22;51.92;;;18.70;99.90;;;;;;5011427;28;20040;-83
2021/06/19 00:44:36;;;;;;;169.55;62.50;;;18.70;99.90;;;;;;5033464;28;20051;-81
2021/06/19 00:47:02;;;;;;;163.65;60.63;;;18.70;99.90;;;;;;5033706;28;20148;-83
2021/06/19 00:49:28;;;;;;;146.15;57.40;;;18.70;99.90;;;;;;5043909;28;20094;-83
2021/06/19 00:51:54;;;;;;;137.20;58.08;;;18.70;99.90;;;;;;5040926;28;20488;-81
2021/06/19 00:54:20;;;;;;;111.95;55.47;;;18.70;99.90;;;;;;5027738;28;20076;-82
2021/06/19 00:56:47;;;;;;;169.98;63.30;;;18.70;99.90;;;;;;5022055;28;20082;-81
2021/06/19 00:59:14;;;;;;;197.35;66.00;;;18.70;99.90;;;;;;5020866;28;20438;-83
2021/06/19 01:01:40;;;;;;;187.40;70.82;;;18.70;99.90;;;;;;5040807;28;20064;-83
2021/06/19 01:04:06;;;;;;;187.80;70.47;;;18.70;99.90;;;;;;5031395;28;21160;-83
2021/06/19 01:06:36;;;;;;;190.90;70.82;;;18.70;99.90;;;;;;5046001;28;20308;-83
2021/06/19 01:09:08;;;;;;;220.38;75.80;;;18.70;99.90;;;;;;5016819;28;20033;-83
2021/06/19 01:11:34;;;;;;;193.35;73.22;;;18.70;99.90;;;;;;5050346;28;20187;-84
2021/06/19 01:14:00;;;;;;;233.10;77.93;;;18.70;99.90;;;;;;5013216;28;20127;-83
2021/06/19 01:16:26;;;;;;;194.10;77.13;;;18.70;99.90;;;;;;5063418;28;20087;-84
2021/06/19 01:18:52;;;;;;;183.07;76.80;;;18.80;99.90;;;;;;5049993;28;20045;-84
2021/06/19 01:21:23;;;;;;;183.75;76.40;;;18.80;99.90;;;;;;5031036;28;20029;-81
2021/06/19 01:23:50;;;;;;;177.25;76.43;;;18.70;99.90;;;;;;5029597;28;20032;-83
2021/06/19 01:26:21;;;;;;;250.02;81.82;;;18.70;99.90;;;;;;5029641;28;20178;-83
2021/06/19 01:28:49;;;;;;;232.77;83.60;;;18.70;99.90;;;;;;5033337;28;20037;-84
2021/06/19 01:31:15;;;;;;;238.77;83.25;;;18.70;99.90;;;;;;5012834;28;20503;-84
2021/06/19 01:33:43;;;;;;;287.20;87.45;;;18.70;99.90;;;;;;5031100;28;20082;-82
2021/06/19 01:36:09;;;;;;;252.82;87.88;;;18.70;99.90;;;;;;5016797;28;20037;-83
2021/06/19 01:38:39;;;;;;;279.02;87.80;;;18.70;99.90;;;;;;5031816;28;20036;-83
2021/06/19 01:41:15;;;;;;;274.20;88.45;;;18.70;99.90;;;;;;5049403;28;20032;-86
2021/06/19 01:43:43;;;;;;;263.05;87.68;;;18.70;99.90;;;;;;5050381;28;20265;-86
2021/06/19 01:46:10;;;;;;;280.83;88.68;;;18.70;99.90;;;;;;5047670;28;20662;-87
2021/06/19 01:48:37;;;;;;;240.10;89.25;;;18.70;99.90;;;;;;5075867;28;20038;-88
2021/06/19 01:51:03;;;;;;;251.02;89.22;;;18.80;99.90;;;;;;5049619;28;20855;-85
2021/06/19 01:53:29;;;;;;;305.50;96.50;;;18.80;99.90;;;;;;5035462;28;20028;-85
2021/06/19 01:55:55;;;;;;;256.77;92.13;;;18.70;99.90;;;;;;5048550;28;20512;-87
2021/06/19 01:58:20;;;;;;;261.45;90.40;;;18.80;99.90;;;;;;5045495;28;20040;-85
2021/06/19 02:00:46;;;;;;;212.10;87.80;;;18.80;99.90;;;;;;5033008;28;20107;-89
2021/06/19 02:03:12;;;;;;;249.77;90.55;;;18.80;99.90;;;;;;5064057;28;20059;-89
2021/06/19 02:05:38;;;;;;;261.90;92.75;;;18.80;99.90;;;;;;5041763;28;20534;-87
2021/06/19 02:08:06;;;;;;;263.35;92.18;;;18.80;99.90;;;;;;5064663;28;20033;-86
2021/06/19 02:10:35;;;;;;;235.23;90.60;;;18.80;99.90;;;;;;5046303;28;20048;-84
2021/06/19 02:13:03;;;;;;;283.23;97.30;;;18.80;99.90;;;;;;5046117;28;20037;-87
2021/06/19 02:15:30;;;;;;;255.25;94.63;;;18.80;99.90;;;;;;5076202;28;20041;-86
2021/06/19 02:17:56;;;;;;;233.13;93.30;;;18.80;99.90;;;;;;5074776;28;20036;-85
2021/06/19 02:20:24;;;;;;;243.02;94.40;;;18.80;99.90;;;;;;5023166;28;20277;-84
2021/06/19 02:22:50;;;;;;;241.02;97.15;;;18.80;99.90;;;;;;5048089;28;20169;-86
2021/06/19 02:25:19;;;;;;;260.85;99.88;;;18.80;99.90;;;;;;5044143;28;20030;-84
2021/06/19 02:27:46;;;;;;;180.82;89.75;;;18.80;99.90;;;;;;5043267;28;20337;-87
2021/06/19 02:30:13;;;;;;;221.00;91.88;;;18.80;99.90;;;;;;5043849;28;20137;-84
2021/06/19 02:32:39;;;;;;;182.80;86.38;;;18.80;99.90;;;;;;5069600;28;20087;-84
2021/06/19 02:35:06;;;;;;;154.65;82.60;;;18.80;99.90;;;;;;5052909;28;20321;-84
2021/06/19 02:37:32;;;;;;;177.60;85.72;;;18.80;99.90;;;;;;5037724;28;20515;-88
2021/06/19 02:39:57;;;;;;;149.80;81.00;;;18.80;99.90;;;;;;5040916;28;20076;-84
2021/06/19 02:42:23;;;;;;;154.05;81.93;;;18.80;99.90;;;;;;5058692;28;20029;-84
2021/06/19 02:44:49;;;;;;;156.85;82.80;;;18.80;99.90;;;;;;5055022;28;20564;-87
2021/06/19 02:47:15;;;;;;;156.07;82.72;;;18.80;99.90;;;;;;5036695;28;20041;-87
2021/06/19 02:49:41;;;;;;;156.25;81.15;;;18.80;99.90;;;;;;5019375;28;20082;-87
2021/06/19 02:52:08;;;;;;;133.60;76.88;;;18.80;99.90;;;;;;5021292;28;20037;-84
2021/06/19 02:54:34;;;;;;;117.10;71.95;;;18.80;99.90;;;;;;5009841;28;20080;-85
2021/06/19 02:57:00;;;;;;;131.25;74.03;;;18.80;99.90;;;;;;5052174;28;20404;-85
2021/06/19 02:59:26;;;;;;;103.72;65.50;;;18.80;99.90;;;;;;5054008;28;20041;-84
2021/06/19 03:01:51;;;;;;;93.15;62.17;;;18.80;99.90;;;;;;4986602;28;20254;-86
2021/06/19 03:04:17;;;;;;;79.45;54.65;;;18.80;99.90;;;;;;5030941;28;20039;-89
2021/06/19 03:06:43;;;;;;;68.38;49.22;;;18.80;99.90;;;;;;5027434;28;20407;-85
2021/06/19 03:09:09;;;;;;;54.70;41.35;;;18.70;99.90;;;;;;5028968;28;20244;-85
2021/06/19 03:11:35;;;;;;;57.78;41.22;;;18.70;99.90;;;;;;5033885;28;20087;-85
2021/06/19 03:14:01;;;;;;;59.70;41.53;;;18.80;99.90;;;;;;5020611;28;20041;-85
2021/06/19 03:16:27;;;;;;;62.45;44.72;;;18.80;99.90;;;;;;5029108;28;20045;-85
2021/06/19 03:18:53;;;;;;;56.88;41.00;;;18.80;99.90;;;;;;5031129;28;20539;-85
2021/06/19 03:21:19;;;;;;;62.33;45.08;;;18.80;99.90;;;;;;5046955;28;20033;-85
2021/06/19 03:23:45;;;;;;;56.80;41.90;;;18.80;99.90;;;;;;5002896;28;20061;-85
2021/06/19 03:26:11;;;;;;;57.47;41.13;;;18.80;99.90;;;;;;5023259;28;20037;-87
2021/06/19 03:28:37;;;;;;;61.60;42.75;;;18.80;99.90;;;;;;5042030;28;20395;-86
2021/06/19 03:31:03;;;;;;;55.60;43.53;;;18.80;99.90;;;;;;5021939;28;20615;-84
2021/06/19 03:33:29;;;;;;;57.28;42.58;;;18.80;99.90;;;;;;5023907;28;20131;-84
2021/06/19 03:35:55;;;;;;;59.10;43.95;;;18.80;99.90;;;;;;4988737;28;20053;-85
2021/06/19 03:38:21;;;;;;;54.97;42.08;;;18.90;99.90;;;;;;5032798;28;20037;-84
2021/06/19 03:40:47;;;;;;;54.97;42.50;;;18.90;99.90;;;;;;5034163;28;20408;-87
2021/06/19 03:43:13;;;;;;;55.97;42.17;;;18.90;99.90;;;;;;5020847;28;20041;-84
2021/06/19 03:45:39;;;;;;;57.72;43.10;;;18.90;99.90;;;;;;5037308;28;20052;-85
2021/06/19 03:48:06;;;;;;;61.88;42.92;;;18.90;99.90;;;;;;5053965;28;20086;-87
2021/06/19 03:50:32;;;;;;;54.17;41.45;;;18.90;99.90;;;;;;5030677;28;20025;-84
2021/06/19 03:52:59;;;;;;;53.25;39.53;;;18.90;99.90;;;;;;5066987;28;20037;-85
2021/06/19 03:55:27;;;;;;;50.17;37.67;;;19.00;99.90;;;;;;5039154;28;20103;-86
2021/06/19 03:57:54;;;;;;;49.35;38.30;;;19.00;99.90;;;;;;5041542;28;20565;-86
2021/06/19 04:00:21;;;;;;;44.70;35.70;;;19.00;99.90;;;;;;5033443;28;20037;-85
2021/06/19 04:02:47;;;;;;;41.65;35.40;;;19.00;99.90;;;;;;5056822;28;20119;-85
2021/06/19 04:05:14;;;;;;;49.60;35.75;;;19.00;99.90;;;;;;5037368;28;20147;-87
2021/06/19 04:07:41;;;;;;;45.97;36.22;;;19.10;99.90;;;;;;5060125;28;20045;-86
2021/06/19 04:10:08;;;;;;;45.72;34.28;;;19.10;99.90;;;;;;5025725;28;20036;-84
2021/06/19 04:12:34;;;;;;;47.33;35.20;;;19.00;99.90;;;;;;5081587;28;20554;-87
2021/06/19 04:15:01;;;;;;;38.25;32.45;;;19.00;99.90;;;;;;5045928;28;20037;-87
2021/06/19 04:17:28;;;;;;;41.30;31.42;;;19.10;99.90;;;;;;5020797;28;20031;-86
2021/06/19 04:19:54;;;;;;;42.03;32.13;;;19.00;99.90;;;;;;5015313;28;20196;-86
2021/06/19 04:22:20;;;;;;;38.35;31.65;;;19.00;99.90;;;;;;5062230;28;20790;-84
2021/06/19 04:24:46;;;;;;;39.58;31.55;;;19.00;99.90;;;;;;5019987;28;20036;-86
2021/06/19 04:27:22;;;;;;;44.65;34.20;;;19.00;99.90;;;;;;5006707;28;20433;-88
2021/06/19 04:29:49;;;;;;;40.33;32.00;;;19.00;99.90;;;;;;5054727;28;20045;-88
2021/06/19 04:32:16;;;;;;;37.85;30.42;;;19.00;99.90;;;;;;5038046;28;20499;-88
2021/06/19 04:34:43;;;;;;;41.05;29.88;;;19.00;99.90;;;;;;5049632;28;20086;-87
2021/06/19 04:37:14;;;;;;;36.25;29.48;;;19.00;99.90;;;;;;5046244;28;20029;-85
2021/06/19 04:39:52;;;;;;;41.38;32.03;;;19.00;99.90;;;;;;5030046;28;20025;-85
2021/06/19 04:42:19;;;;;;;40.13;30.98;;;18.90;99.90;;;;;;5035647;28;20033;-87
2021/06/19 04:47:25;;;;;;;37.00;30.60;;;19.00;99.90;;;;;;5027651;28;20244;-89
2021/06/19 04:49:54;;;;;;;41.33;31.73;;;19.00;99.90;;;;;;5065256;28;20060;-88
2021/06/19 04:52:21;;;;;;;42.40;32.65;;;19.10;99.90;;;;;;5049764;28;20623;-88
2021/06/19 04:54:47;;;;;;;41.42;32.33;;;19.10;99.90;;;;;;5052993;28;20048;-86
2021/06/19 04:57:13;;;;;;;37.13;30.00;;;19.10;99.90;;;;;;5027624;28;20048;-88
2021/06/19 04:59:38;;;;;;;39.20;31.65;;;19.20;99.90;;;;;;5060105;28;20037;-86
2021/06/19 05:02:04;;;;;;;39.35;30.00;;;19.20;99.90;;;;;;5058448;28;20126;-89
2021/06/19 05:04:30;;;;;;;41.42;31.15;;;19.30;99.90;;;;;;5017422;28;20044;-87
2021/06/19 05:06:56;;;;;;;35.35;28.95;;;19.30;99.90;;;;;;5055658;28;20030;-88
2021/06/19 05:09:23;;;;;;;37.78;29.35;;;19.30;99.90;;;;;;5024877;28;20044;-86
2021/06/19 05:11:48;;;;;;;40.88;31.67;;;19.30;99.90;;;;;;5058114;28;20033;-87
2021/06/19 05:14:15;;;;;;;35.38;28.83;;;19.40;99.90;;;;;;5052733;28;20041;-87
2021/06/19 05:16:41;;;;;;;36.47;29.63;;;19.40;99.90;;;;;;5044229;28;20045;-89
2021/06/19 05:19:07;;;;;;;42.45;30.85;;;19.50;99.90;;;;;;5047355;28;20523;-87
2021/06/19 05:21:33;;;;;;;44.63;31.35;;;19.50;99.90;;;;;;5059062;28;20045;-86
2021/06/19 05:23:59;;;;;;;39.10;32.05;;;19.50;99.90;;;;;;5057433;28;20395;-85
2021/06/19 05:26:24;;;;;;;38.13;31.05;;;19.50;99.90;;;;;;5012853;28;20029;-87
2021/06/19 05:28:50;;;;;;;38.55;29.35;;;19.50;99.90;;;;;;5060322;28;20060;-87
2021/06/19 05:31:16;;;;;;;36.47;30.48;;;19.50;99.90;;;;;;4988131;28;20064;-89
2021/06/19 05:33:42;;;;;;;41.40;31.10;;;19.50;99.90;;;;;;5025171;28;20056;-88
2021/06/19 05:36:08;;;;;;;37.60;29.58;;;19.40;99.90;;;;;;5016847;28;20040;-88
2021/06/19 05:38:34;;;;;;;36.13;29.17;;;19.50;99.90;;;;;;5025012;28;21219;-87
2021/06/19 05:41:00;;;;;;;40.17;29.55;;;19.40;99.90;;;;;;5030698;28;20129;-87
2021/06/19 05:43:26;;;;;;;38.92;31.02;;;19.40;99.90;;;;;;5026652;28;20143;-88
2021/06/19 05:45:52;;;;;;;41.60;31.52;;;19.40;99.90;;;;;;5012135;28;20034;-87
2021/06/19 05:48:19;;;;;;;38.80;30.42;;;19.40;99.90;;;;;;4991786;28;20099;-87
2021/06/19 05:50:45;;;;;;;38.25;31.20;;;19.50;99.90;;;;;;5025853;28;21466;-88
2021/06/19 05:53:11;;;;;;;40.17;31.27;;;19.40;99.90;;;;;;5039291;28;20487;-86
2021/06/19 05:55:37;;;;;;;41.70;32.03;;;19.40;99.90;;;;;;5038639;28;21213;-88
2021/06/19 05:58:03;;;;;;;48.00;32.63;;;19.50;99.90;;;;;;5041584;28;20120;-88
2021/06/19 06:00:29;;;;;;;40.33;31.67;;;19.50;99.90;;;;;;4998535;28;20505;-87
2021/06/19 06:02:55;;;;;;;40.33;30.98;;;19.50;99.90;;;;;;5047073;28;20040;-86
2021/06/19 06:05:21;;;;;;;43.67;31.90;;;19.50;99.90;;;;;;5029299;28;20051;-87
2021/06/19 06:07:47;;;;;;;45.60;32.42;;;19.60;99.90;;;;;;5002490;28;20083;-88
2021/06/19 06:10:13;;;;;;;40.70;31.50;;;19.60;99.90;;;;;;5008455;28;20203;-88
2021/06/19 06:12:39;;;;;;;38.67;31.42;;;19.60;99.90;;;;;;5019868;28;20119;-87
2021/06/19 06:15:07;;;;;;;40.45;30.50;;;19.60;99.90;;;;;;5027265;28;20457;-85
2021/06/19 06:17:33;;;;;;;48.35;31.58;;;19.60;99.90;;;;;;5063675;28;20461;-84
2021/06/19 06:19:59;;;;;;;38.67;30.65;;;19.60;99.90;;;;;;5014916;28;21527;-85
2021/06/19 06:22:25;;;;;;;47.38;31.42;;;19.60;99.90;;;;;;5029151;28;20087;-84
2021/06/19 06:24:51;;;;;;;41.40;30.85;;;19.60;99.90;;;;;;5034206;28;20040;-85
2021/06/19 06:27:18;;;;;;;41.58;30.27;;;19.50;99.90;;;;;;5030584;28;20507;-83
2021/06/19 06:29:44;;;;;;;41.40;30.35;;;19.50;99.90;;;;;;5046699;28;20037;-85
2021/06/19 06:32:09;;;;;;;44.05;30.90;;;19.50;99.90;;;;;;5028943;28;20091;-82
2021/06/19 06:34:36;;;;;;;45.28;31.33;;;19.40;99.90;;;;;;5028517;28;20288;-82
2021/06/19 06:37:02;;;;;;;40.10;28.63;;;19.40;99.90;;;;;;5030454;28;20041;-88
2021/06/19 06:39:28;;;;;;;38.42;26.83;;;19.50;99.90;;;;;;5011390;28;20045;-85
2021/06/19 06:41:55;;;;;;;38.72;27.65;;;19.40;99.90;;;;;;5048126;28;20033;-85
2021/06/19 06:44:21;;;;;;;39.05;29.00;;;19.40;99.90;;;;;;5025812;28;21148;-84
2021/06/19 06:46:47;;;;;;;40.47;27.02;;;19.40;99.90;;;;;;5043820;28;20045;-88
2021/06/19 06:49:13;;;;;;;38.53;27.60;;;19.40;99.90;;;;;;5036408;28;20154;-84
2021/06/19 06:51:38;;;;;;;37.63;28.63;;;19.40;99.90;;;;;;5037687;28;20110;-85
2021/06/19 06:54:05;;;;;;;39.72;28.67;;;19.40;99.90;;;;;;5068207;28;20048;-85
2021/06/19 06:56:31;;;;;;;38.00;26.10;;;19.40;99.90;;;;;;5039393;28;20498;-86
2021/06/19 06:58:57;;;;;;;39.20;27.27;;;19.50;99.90;;;;;;5041498;28;20051;-87
2021/06/19 07:01:23;;;;;;;36.60;26.75;;;19.50;99.90;;;;;;5025119;28;20037;-83
2021/06/19 07:03:49;;;;;;;40.00;28.40;;;19.50;99.90;;;;;;5041572;28;20041;-86
2021/06/19 07:06:15;;;;;;;40.85;27.85;;;19.50;99.90;;;;;;5055855;28;20033;-86
2021/06/19 07:08:41;;;;;;;44.20;27.73;;;19.60;99.90;;;;;;5067146;28;20044;-86
2021/06/19 07:11:07;;;;;;;42.67;27.92;;;19.60;99.90;;;;;;5020123;28;20029;-84
2021/06/19 07:13:33;;;;;;;38.53;28.10;;;19.60;99.90;;;;;;5039660;28;20395;-85
2021/06/19 07:15:59;;;;;;;40.50;27.88;;;19.60;99.90;;;;;;5019534;28;20060;-84
2021/06/19 07:18:25;;;;;;;44.50;29.20;;;19.60;99.90;;;;;;5033220;28;20425;-85
2021/06/19 07:20:52;;;;;;;49.45;29.20;;;19.70;99.90;;;;;;5057713;28;20041;-84
2021/06/19 07:23:17;;;;;;;46.38;28.92;;;19.80;99.90;;;;;;5022301;28;20037;-84
2021/06/19 07:25:43;;;;;;;44.95;28.20;;;19.90;99.90;;;;;;5044415;28;20549;-85
2021/06/19 07:28:09;;;;;;;40.22;28.80;;;19.90;99.90;;;;;;5049875;28;20039;-83
2021/06/19 07:30:35;;;;;;;46.75;30.08;;;20.00;99.90;;;;;;5031427;28;20033;-82
2021/06/19 07:33:01;;;;;;;44.10;28.65;;;20.10;99.60;;;;;;5025099;28;20037;-84
2021/06/19 07:35:27;;;;;;;45.50;30.75;;;20.10;99.60;;;;;;5032663;28;20572;-84
2021/06/19 07:37:53;;;;;;;46.97;29.73;;;20.10;99.70;;;;;;5033506;28;20048;-82
2021/06/19 07:40:19;;;;;;;44.08;29.17;;;20.10;99.60;;;;;;5036639;28;20057;-83
2021/06/19 07:42:45;;;;;;;47.22;28.45;;;20.10;99.30;;;;;;5035672;28;20059;-83
2021/06/19 07:45:12;;;;;;;45.72;28.92;;;20.00;99.10;;;;;;5058704;28;20057;-82
2021/06/19 07:47:38;;;;;;;50.25;31.83;;;20.00;98.90;;;;;;5039151;28;21441;-82
2021/06/19 07:50:05;;;;;;;45.55;29.27;;;20.00;99.00;;;;;;5029996;28;20051;-83
2021/06/19 07:52:31;;;;;;;43.90;28.73;;;20.00;98.90;;;;;;5033270;28;20399;-81
2021/06/19 07:54:57;;;;;;;42.22;26.80;;;20.20;98.70;;;;;;5064750;28;20131;-83
2021/06/19 07:57:22;;;;;;;42.00;27.45;;;20.20;98.50;;;;;;5045319;28;20043;-83
2021/06/19 07:59:48;;;;;;;41.97;26.50;;;20.30;98.30;;;;;;5033764;28;20041;-83
2021/06/19 08:02:14;;;;;;;45.20;26.27;;;20.30;98.20;;;;;;5010601;28;20029;-83
2021/06/19 08:04:40;;;;;;;36.85;23.73;;;20.30;98.10;;;;;;5050074;28;20040;-84
2021/06/19 08:07:06;;;;;;;37.38;25.25;;;20.20;98.00;;;;;;5031361;28;20041;-84
2021/06/19 08:09:32;;;;;;;42.47;26.20;;;20.20;97.80;;;;;;5062942;28;20041;-83
2021/06/19 08:11:58;;;;;;;37.75;25.27;;;20.20;97.80;;;;;;5035302;28;20431;-84
2021/06/19 08:14:25;;;;;;;34.00;22.58;;;20.20;97.80;;;;;;5069263;28;20041;-83
2021/06/19 08:16:53;;;;;;;37.90;23.05;;;20.20;97.60;;;;;;5034231;28;20040;-83
2021/06/19 08:19:20;;;;;;;31.15;20.48;;;20.30;97.50;;;;;;5052284;28;22110;-83
2021/06/19 08:21:46;;;;;;;29.52;19.02;;;20.30;97.20;;;;;;5037944;28;20063;-81
2021/06/19 08:24:12;;;;;;;30.10;19.15;;;20.30;96.80;;;;;;5036175;28;20036;-83
2021/06/19 08:26:38;;;;;;;31.92;17.35;;;20.30;96.50;;;;;;5055802;28;20037;-80
2021/06/19 08:29:06;;;;;;;27.58;18.90;;;20.30;96.60;;;;;;5018571;28;20049;-83
2021/06/19 08:31:36;;;;;;;30.08;17.25;;;20.30;96.90;;;;;;5036232;28;20043;-83
2021/06/19 08:34:03;;;;;;;25.25;16.20;;;20.40;96.30;;;;;;5018015;28;20472;-81
2021/06/19 08:36:30;;;;;;;28.80;17.20;;;20.40;96.00;;;;;;5020371;28;20045;-82
2021/06/19 08:38:56;;;;;;;26.77;16.52;;;20.40;96.10;;;;;;5034939;28;20483;-82
2021/06/19 08:41:22;;;;;;;24.95;17.58;;;20.50;96.20;;;;;;5030979;28;20044;-83
2021/06/19 08:43:48;;;;;;;27.45;16.95;;;20.60;96.20;;;;;;5023449;28;20034;-83
2021/06/19 08:46:19;;;;;;;29.30;18.15;;;20.70;95.90;;;;;;5029053;28;20051;-82
2021/06/19 08:48:47;;;;;;;27.05;17.45;;;20.70;95.60;;;;;;5028558;28;20061;-90
2021/06/19 08:51:13;;;;;;;29.85;18.60;;;20.80;95.50;;;;;;5071282;28;20045;-87
2021/06/19 08:53:42;;;;;;;29.58;18.65;;;20.80;95.90;;;;;;5028520;28;20056;-86
2021/06/19 08:56:12;;;;;;;33.13;19.75;;;20.80;95.50;;;;;;5031766;28;20128;-86
2021/06/19 08:58:38;;;;;;;30.98;19.05;;;20.80;95.50;;;;;;5031675;28;22186;-83
2021/06/19 09:01:04;;;;;;;28.90;17.75;;;20.80;95.40;;;;;;5035892;28;20296;-82
2021/06/19 09:03:30;;;;;;;29.60;18.95;;;20.80;95.40;;;;;;5029247;28;20381;-86
2021/06/19 09:06:15;;;;;;;27.00;18.77;;;20.90;95.00;;;;;;5046325;28;20091;-88
2021/06/19 09:09:14;;;;;;;28.92;18.65;;;20.90;95.10;;;;;;5022045;28;21061;-86
2021/06/19 09:11:45;;;;;;;31.80;18.50;;;20.90;95.10;;;;;;5024058;28;20044;-83
2021/06/19 09:14:16;;;;;;;28.50;19.05;;;20.90;95.30;;;;;;5024881;28;20400;-86
2021/06/19 09:16:44;;;;;;;29.50;18.20;;;20.90;95.00;;;;;;5026189;28;20116;-86
2021/06/19 09:19:31;;;;;;;23.65;15.48;;;21.00;95.00;;;;;;5038892;28;20029;-86
2021/06/19 09:22:11;;;;;;;22.75;15.32;;;21.10;94.70;;;;;;5029741;28;21734;-86
2021/06/19 09:24:57;;;;;;;18.83;13.38;;;21.10;94.30;;;;;;5048307;28;20145;-86
2021/06/19 09:27:35;;;;;;;20.00;14.57;;;21.30;94.20;;;;;;5018150;28;20049;-84
2021/06/19 09:30:11;;;;;;;22.58;16.70;;;21.40;93.60;;;;;;5032143;28;20048;-86
2021/06/19 09:32:47;;;;;;;25.13;17.20;;;21.30;93.10;;;;;;5032793;28;20052;-84
2021/06/19 09:35:29;;;;;;;30.85;17.35;;;21.30;92.90;;;;;;5034195;28;20108;-87
2021/06/19 09:38:05;;;;;;;28.83;19.05;;;21.30;92.80;;;;;;5060192;28;20037;-86
2021/06/19 09:40:42;;;;;;;24.63;17.77;;;21.20;93.10;;;;;;5058110;28;20041;-85
2021/06/19 09:43:18;;;;;;;25.50;18.15;;;21.20;93.20;;;;;;5001513;28;20048;-86
2021/06/19 09:46:05;;;;;;;23.83;18.02;;;21.20;93.40;;;;;;5030142;28;20633;-86
2021/06/19 09:48:33;;;;;;;25.48;16.20;;;21.30;93.60;;;;;;5008956;28;20485;-86
2021/06/19 09:51:09;;;;;;;21.92;15.35;;;21.50;93.60;;;;;;5032518;28;20065;-87
2021/06/19 09:53:35;;;;;;;22.95;15.75;;;21.50;93.10;;;;;;5029286;28;20059;-86
2021/06/19 09:56:05;;;;;;;21.50;13.88;;;21.60;93.10;;;;;;5045858;28;20495;-85
2021/06/19 09:58:47;;;;;;;17.85;13.65;;;21.60;92.90;;;;;;5012617;28;20037;-85
2021/06/19 10:01:31;;;;;;;22.73;14.20;;;21.70;92.80;;;;;;5030918;28;20037;-86
2021/06/19 10:03:58;;;;;;;20.85;14.05;;;21.70;92.90;;;;;;5027477;28;20063;-85
2021/06/19 10:06:25;;;;;;;19.17;12.80;;;21.90;92.70;;;;;;5027853;28;21632;-89
2021/06/19 10:08:53;;;;;;;16.77;13.10;;;22.00;92.30;;;;;;5059618;28;20041;-86
2021/06/19 10:11:21;;;;;;;16.70;12.52;;;22.10;92.20;;;;;;5061290;28;20036;-85
2021/06/19 10:13:47;;;;;;;16.98;11.77;;;22.20;91.90;;;;;;5065206;28;20073;-84
2021/06/19 10:16:15;;;;;;;15.80;12.57;;;22.30;91.50;;;;;;5037968;28;20068;-83
2021/06/19 10:18:42;;;;;;;17.00;11.40;;;22.30;90.80;;;;;;5065262;28;20100;-87
2021/06/19 10:21:10;;;;;;;18.75;12.90;;;22.20;90.80;;;;;;5027774;28;20701;-84
2021/06/19 10:23:36;;;;;;;18.25;13.52;;;22.10;90.60;;;;;;5025594;28;20038;-86
2021/06/19 10:26:03;;;;;;;17.83;12.90;;;22.00;90.80;;;;;;5063799;28;20029;-85
2021/06/19 10:28:31;;;;;;;18.48;12.15;;;22.00;91.30;;;;;;5010246;28;20762;-84
2021/06/19 10:30:58;;;;;;;19.17;14.48;;;22.10;91.60;;;;;;5024236;28;20531;-83
2021/06/19 10:33:33;;;;;;;20.85;14.63;;;22.20;91.70;;;;;;5026965;28;20040;-87
2021/06/19 10:36:11;;;;;;;15.50;13.02;;;22.30;91.40;;;;;;5056537;28;20071;-82
2021/06/19 10:38:52;;;;;;;18.70;13.23;;;22.50;91.00;;;;;;5059282;28;20132;-87
2021/06/19 10:41:21;;;;;;;20.15;13.40;;;22.60;90.90;;;;;;5034787;28;20036;-85
2021/06/19 10:43:51;;;;;;;16.23;12.98;;;22.60;91.00;;;;;;5063117;28;20522;-83
2021/06/19 10:46:36;;;;;;;18.25;12.68;;;22.70;91.10;;;;;;5027725;28;20032;-85
2021/06/19 10:49:22;;;;;;;17.58;13.55;;;22.70;90.90;;;;;;5025156;28;20205;-86
2021/06/19 10:51:49;;;;;;;18.48;12.52;;;22.80;90.70;;;;;;5023873;28;21674;-86
2021/06/19 10:54:15;;;;;;;14.45;11.38;;;22.80;91.00;;;;;;5022344;28;20503;-84
2021/06/19 10:56:48;;;;;;;19.23;14.60;;;22.70;90.40;;;;;;5009062;28;20472;-83
2021/06/19 10:59:28;;;;;;;18.45;14.02;;;22.70;90.30;;;;;;5020370;28;20041;-87
2021/06/19 11:01:57;;;;;;;19.83;13.18;;;22.70;90.90;;;;;;5022317;28;20043;-86
2021/06/19 11:04:36;;;;;;;16.02;12.93;;;22.80;90.70;;;;;;5029419;28;20048;-84
2021/06/19 11:07:06;;;;;;;19.75;15.02;;;22.70;90.50;;;;;;5031731;28;20426;-85
2021/06/19 11:09:43;;;;;;;19.52;13.45;;;22.80;90.80;;;;;;5034188;28;20032;-86
2021/06/19 11:12:24;;;;;;;16.38;12.27;;;22.90;90.90;;;;;;5042568;28;20061;-86
2021/06/19 11:14:51;;;;;;;15.88;13.30;;;22.90;90.60;;;;;;5039071;28;20048;-83
2021/06/19 11:17:23;;;;;;;14.20;12.45;;;22.90;90.70;;;;;;5036938;28;20025;-82
2021/06/19 11:19:54;;;;;;;14.52;11.20;;;23.00;90.80;;;;;;5049126;28;20033;-85
2021/06/19 11:22:39;;;;;;;13.50;11.30;;;23.00;90.50;;;;;;5072688;28;20032;-83
2021/06/19 11:25:18;;;;;;;16.33;11.18;;;23.00;90.20;;;;;;5078555;28;21096;-81
2021/06/19 11:28:19;;;;;;;10.68;9.50;;;23.10;89.10;;;;;;5029037;28;20428;-84
2021/06/19 11:31:03;;;;;;;13.73;10.70;;;23.00;88.70;;;;;;5024731;28;20263;-83
2021/06/19 11:33:32;;;;;;;9.57;8.15;;;22.90;90.00;;;;;;5062199;28;20124;-83
2021/06/19 11:36:00;;;;;;;10.50;9.05;;;22.90;89.70;;;;;;5010857;28;20192;-81
2021/06/19 11:38:50;;;;;;;11.77;7.93;;;22.90;88.70;;;;;;5051589;28;20429;-84
2021/06/19 11:41:23;;;;;;;17.52;11.13;;;22.90;87.50;;;;;;5037158;28;20033;-86
2021/06/19 11:43:49;;;;;;;9.95;9.00;;;22.80;88.10;;;;;;5034618;28;20033;-84
2021/06/19 11:46:23;;;;;;;9.50;8.55;;;22.80;88.40;;;;;;5066853;28;20111;-81
2021/06/19 11:48:51;;;;;;;11.10;9.93;;;22.80;87.40;;;;;;5064355;28;20049;-82
2021/06/19 11:51:20;;;;;;;13.65;11.60;;;22.80;87.70;;;;;;5066159;28;20041;-82
2021/06/19 11:53:46;;;;;;;10.13;9.13;;;22.80;87.80;;;;;;5044540;28;20492;-81
2021/06/19 11:56:31;;;;;;;10.55;9.57;;;22.70;87.70;;;;;;5048469;28;20063;-81
2021/06/19 11:59:04;;;;;;;13.73;12.27;;;22.70;87.20;;;;;;5032286;28;20139;-81
2021/06/19 12:01:33;;;;;;;12.48;11.18;;;22.70;87.30;;;;;;5029253;28;20521;-82
2021/06/19 12:04:03;;;;;;;11.48;10.27;;;22.70;88.00;;;;;;5044105;28;20079;-80
2021/06/19 12:06:33;;;;;;;12.70;11.43;;;22.70;88.00;;;;;;5074929;28;20041;-81
2021/06/19 12:08:59;;;;;;;12.35;11.15;;;22.80;88.10;;;;;;5032375;28;20045;-81
2021/06/19 12:11:26;;;;;;;16.85;12.93;;;22.90;88.60;;;;;;5017545;28;20120;-82
2021/06/19 12:13:52;;;;;;;13.02;11.73;;;23.00;88.40;;;;;;5012949;28;20127;-82
2021/06/19 12:16:18;;;;;;;14.27;12.93;;;23.00;88.90;;;;;;5013368;28;20871;-82
2021/06/19 12:18:47;;;;;;;14.30;12.90;;;23.00;88.70;;;;;;5030154;28;20744;-82
2021/06/19 12:21:14;;;;;;;12.43;10.68;;;23.10;88.20;;;;;;5019824;28;20036;-82
2021/06/19 12:23:45;;;;;;;11.73;9.82;;;23.20;88.90;;;;;;5039980;28;20029;-82
2021/06/19 12:26:16;;;;;;;15.00;13.48;;;23.30;87.90;;;;;;5014811;28;20037;-84
2021/06/19 12:28:48;;;;;;;15.75;14.13;;;23.40;87.40;;;;;;5061130;28;20094;-83
2021/06/19 12:31:15;;;;;;;17.60;14.68;;;23.30;87.20;;;;;;5060477;28;20065;-83
2021/06/19 12:33:43;;;;;;;19.45;17.30;;;23.30;88.20;;;;;;5029586;28;20373;-83